Long Branch, New Jersey
Current Conditions -  °F | °C
As of 6:15 AM on Sunday 23 Nov 2014 (Local Time) from KBLM Reporting Station
Overcast Overcast  
Wind Chill: 36°   Ceiling: 12000
Heat Index: 41°   Visibility: 10mi
Dew Point: 19°   Wind: 7mph
Humidity: 42%   Direction: 240°WSW
Pressure: 30.2"   Gusts: NA
Location:  40.3°N, 73.99°W
Report Text: KBLM 231115Z AUTO 24006KT 10SM OVC120 05/M07 A3020 RMK AO1
Loading
Personal Weather Stations






























Interactive Weather Map New forecast layout! Learn more

10-Day Weather Forecast

Advertisements
Track Severe Weather on mobile